sensor_id;sensor_type;location;lat;lon;timestamp;P1;durP1;ratioP1;P2;durP2;ratioP2
17310;SDS011;8773;43.300;0.394;2022-08-19T00:01:52;6.57;;;5.00;;
17310;SDS011;8773;43.300;0.394;2022-08-19T00:04:24;5.40;;;4.90;;
17310;SDS011;8773;43.300;0.394;2022-08-19T00:06:55;5.93;;;4.30;;
17310;SDS011;8773;43.300;0.394;2022-08-19T00:09:23;6.85;;;5.13;;
17310;SDS011;8773;43.300;0.394;2022-08-19T00:11:52;5.60;;;5.05;;
17310;SDS011;8773;43.300;0.394;2022-08-19T00:14:23;4.78;;;4.38;;
17310;SDS011;8773;43.300;0.394;2022-08-19T00:16:53;5.60;;;4.70;;
17310;SDS011;8773;43.300;0.394;2022-08-19T00:19:21;4.70;;;4.30;;
17310;SDS011;8773;43.300;0.394;2022-08-19T00:21:51;5.77;;;4.53;;
17310;SDS011;8773;43.300;0.394;2022-08-19T00:24:21;5.03;;;4.00;;
17310;SDS011;8773;43.300;0.394;2022-08-19T00:26:49;4.78;;;4.40;;
17310;SDS011;8773;43.300;0.394;2022-08-19T00:29:19;4.88;;;4.40;;
17310;SDS011;8773;43.300;0.394;2022-08-19T00:31:48;4.73;;;4.17;;
17310;SDS011;8773;43.300;0.394;2022-08-19T00:34:19;6.50;;;4.90;;
17310;SDS011;8773;43.300;0.394;2022-08-19T00:36:48;5.90;;;4.73;;
17310;SDS011;8773;43.300;0.394;2022-08-19T00:39:17;4.33;;;3.80;;
17310;SDS011;8773;43.300;0.394;2022-08-19T00:41:47;4.13;;;3.77;;
17310;SDS011;8773;43.300;0.394;2022-08-19T00:44:18;4.32;;;3.90;;
17310;SDS011;8773;43.300;0.394;2022-08-19T00:46:52;3.75;;;3.45;;
17310;SDS011;8773;43.300;0.394;2022-08-19T00:49:25;3.33;;;3.20;;
17310;SDS011;8773;43.300;0.394;2022-08-19T00:51:59;3.53;;;3.07;;
17310;SDS011;8773;43.300;0.394;2022-08-19T00:54:30;3.17;;;2.90;;
17310;SDS011;8773;43.300;0.394;2022-08-19T00:57:01;2.72;;;2.63;;
17310;SDS011;8773;43.300;0.394;2022-08-19T00:59:32;3.38;;;3.08;;
17310;SDS011;8773;43.300;0.394;2022-08-19T01:02:23;3.22;;;3.03;;
17310;SDS011;8773;43.300;0.394;2022-08-19T01:04:52;2.80;;;2.70;;
17310;SDS011;8773;43.300;0.394;2022-08-19T01:07:21;3.28;;;3.08;;
17310;SDS011;8773;43.300;0.394;2022-08-19T01:09:49;3.93;;;3.63;;
17310;SDS011;8773;43.300;0.394;2022-08-19T01:12:19;3.43;;;3.23;;
17310;SDS011;8773;43.300;0.394;2022-08-19T01:14:47;3.20;;;3.00;;
17310;SDS011;8773;43.300;0.394;2022-08-19T01:17:17;4.10;;;3.90;;
17310;SDS011;8773;43.300;0.394;2022-08-19T01:19:46;3.50;;;3.30;;
17310;SDS011;8773;43.300;0.394;2022-08-19T01:22:16;3.90;;;3.60;;
17310;SDS011;8773;43.300;0.394;2022-08-19T01:24:58;3.75;;;3.53;;
17310;SDS011;8773;43.300;0.394;2022-08-19T01:27:26;4.07;;;3.75;;
17310;SDS011;8773;43.300;0.394;2022-08-19T01:30:09;4.28;;;4.03;;
17310;SDS011;8773;43.300;0.394;2022-08-19T01:32:41;4.50;;;4.20;;
17310;SDS011;8773;43.300;0.394;2022-08-19T01:35:36;4.03;;;3.83;;
17310;SDS011;8773;43.300;0.394;2022-08-19T01:38:34;4.10;;;3.90;;
17310;SDS011;8773;43.300;0.394;2022-08-19T01:41:23;4.57;;;4.28;;
17310;SDS011;8773;43.300;0.394;2022-08-19T01:43:51;4.50;;;4.10;;
17310;SDS011;8773;43.300;0.394;2022-08-19T01:46:40;4.72;;;4.43;;
17310;SDS011;8773;43.300;0.394;2022-08-19T01:49:08;4.60;;;4.30;;
17310;SDS011;8773;43.300;0.394;2022-08-19T01:51:36;5.00;;;4.60;;
17310;SDS011;8773;43.300;0.394;2022-08-19T01:54:06;5.17;;;4.67;;
17310;SDS011;8773;43.300;0.394;2022-08-19T01:56:35;4.75;;;4.38;;
17310;SDS011;8773;43.300;0.394;2022-08-19T01:59:05;5.30;;;4.70;;
17310;SDS011;8773;43.300;0.394;2022-08-19T02:01:37;4.80;;;4.40;;
17310;SDS011;8773;43.300;0.394;2022-08-19T02:04:06;5.30;;;4.90;;
17310;SDS011;8773;43.300;0.394;2022-08-19T02:06:34;4.95;;;4.55;;
17310;SDS011;8773;43.300;0.394;2022-08-19T02:09:03;4.93;;;4.53;;
17310;SDS011;8773;43.300;0.394;2022-08-19T02:11:36;5.20;;;4.80;;
17310;SDS011;8773;43.300;0.394;2022-08-19T02:14:06;5.43;;;4.50;;
17310;SDS011;8773;43.300;0.394;2022-08-19T02:16:35;4.63;;;4.32;;
17310;SDS011;8773;43.300;0.394;2022-08-19T02:19:04;4.95;;;4.60;;
17310;SDS011;8773;43.300;0.394;2022-08-19T02:21:32;4.80;;;4.30;;
17310;SDS011;8773;43.300;0.394;2022-08-19T02:24:00;5.38;;;4.85;;
17310;SDS011;8773;43.300;0.394;2022-08-19T02:26:29;5.47;;;4.97;;
17310;SDS011;8773;43.300;0.394;2022-08-19T02:28:58;5.30;;;4.80;;
17310;SDS011;8773;43.300;0.394;2022-08-19T02:31:26;5.75;;;5.20;;
17310;SDS011;8773;43.300;0.394;2022-08-19T02:33:55;5.60;;;5.07;;
17310;SDS011;8773;43.300;0.394;2022-08-19T02:36:24;5.68;;;5.18;;
17310;SDS011;8773;43.300;0.394;2022-08-19T02:38:52;5.80;;;5.40;;
17310;SDS011;8773;43.300;0.394;2022-08-19T02:41:21;5.78;;;5.38;;
17310;SDS011;8773;43.300;0.394;2022-08-19T02:43:52;6.15;;;5.55;;
17310;SDS011;8773;43.300;0.394;2022-08-19T02:46:42;6.45;;;5.72;;
17310;SDS011;8773;43.300;0.394;2022-08-19T02:49:12;6.10;;;5.57;;
17310;SDS011;8773;43.300;0.394;2022-08-19T02:51:43;5.45;;;4.95;;
17310;SDS011;8773;43.300;0.394;2022-08-19T02:54:13;6.63;;;6.03;;
17310;SDS011;8773;43.300;0.394;2022-08-19T02:56:42;6.40;;;5.90;;
17310;SDS011;8773;43.300;0.394;2022-08-19T02:59:10;6.70;;;5.97;;
17310;SDS011;8773;43.300;0.394;2022-08-19T03:01:39;6.18;;;5.68;;
17310;SDS011;8773;43.300;0.394;2022-08-19T03:04:10;6.13;;;5.83;;
17310;SDS011;8773;43.300;0.394;2022-08-19T03:06:42;6.53;;;5.93;;
17310;SDS011;8773;43.300;0.394;2022-08-19T03:09:12;5.88;;;5.43;;
17310;SDS011;8773;43.300;0.394;2022-08-19T03:11:41;5.70;;;5.22;;
17310;SDS011;8773;43.300;0.394;2022-08-19T03:14:09;6.27;;;5.77;;
17310;SDS011;8773;43.300;0.394;2022-08-19T03:16:40;6.30;;;5.88;;
17310;SDS011;8773;43.300;0.394;2022-08-19T03:19:11;6.38;;;5.85;;
17310;SDS011;8773;43.300;0.394;2022-08-19T03:21:40;6.60;;;5.57;;
17310;SDS011;8773;43.300;0.394;2022-08-19T03:24:10;6.00;;;5.50;;
17310;SDS011;8773;43.300;0.394;2022-08-19T03:26:40;6.57;;;5.97;;
17310;SDS011;8773;43.300;0.394;2022-08-19T03:29:09;5.47;;;5.07;;
17310;SDS011;8773;43.300;0.394;2022-08-19T03:31:39;7.43;;;5.32;;
17310;SDS011;8773;43.300;0.394;2022-08-19T03:34:20;5.67;;;5.03;;
17310;SDS011;8773;43.300;0.394;2022-08-19T03:36:52;5.00;;;4.57;;
17310;SDS011;8773;43.300;0.394;2022-08-19T03:39:21;5.25;;;4.75;;
17310;SDS011;8773;43.300;0.394;2022-08-19T03:41:51;5.80;;;5.30;;
17310;SDS011;8773;43.300;0.394;2022-08-19T03:44:42;5.33;;;4.97;;
17310;SDS011;8773;43.300;0.394;2022-08-19T03:47:11;6.72;;;5.10;;
17310;SDS011;8773;43.300;0.394;2022-08-19T03:49:44;5.63;;;5.20;;
17310;SDS011;8773;43.300;0.394;2022-08-19T03:52:12;5.18;;;4.72;;
17310;SDS011;8773;43.300;0.394;2022-08-19T03:54:41;5.43;;;4.63;;
17310;SDS011;8773;43.300;0.394;2022-08-19T03:57:09;6.93;;;5.07;;
17310;SDS011;8773;43.300;0.394;2022-08-19T03:59:37;5.35;;;4.90;;
17310;SDS011;8773;43.300;0.394;2022-08-19T04:02:07;4.97;;;4.60;;
17310;SDS011;8773;43.300;0.394;2022-08-19T04:04:39;5.93;;;5.35;;
17310;SDS011;8773;43.300;0.394;2022-08-19T04:07:11;4.97;;;4.57;;
17310;SDS011;8773;43.300;0.394;2022-08-19T04:09:42;4.80;;;4.50;;
17310;SDS011;8773;43.300;0.394;2022-08-19T04:12:10;5.95;;;5.07;;
17310;SDS011;8773;43.300;0.394;2022-08-19T04:14:38;5.57;;;4.80;;
17310;SDS011;8773;43.300;0.394;2022-08-19T04:17:06;6.28;;;4.30;;
17310;SDS011;8773;43.300;0.394;2022-08-19T04:19:34;5.10;;;4.70;;
17310;SDS011;8773;43.300;0.394;2022-08-19T04:22:05;5.25;;;4.85;;
17310;SDS011;8773;43.300;0.394;2022-08-19T04:24:35;5.10;;;4.65;;
17310;SDS011;8773;43.300;0.394;2022-08-19T04:27:03;5.60;;;5.20;;
17310;SDS011;8773;43.300;0.394;2022-08-19T04:29:32;6.50;;;5.10;;
17310;SDS011;8773;43.300;0.394;2022-08-19T04:32:02;5.72;;;5.25;;
17310;SDS011;8773;43.300;0.394;2022-08-19T04:34:34;6.07;;;5.57;;
17310;SDS011;8773;43.300;0.394;2022-08-19T04:37:24;6.77;;;5.50;;
17310;SDS011;8773;43.300;0.394;2022-08-19T04:40:02;6.88;;;6.13;;
17310;SDS011;8773;43.300;0.394;2022-08-19T04:42:49;6.80;;;5.82;;
17310;SDS011;8773;43.300;0.394;2022-08-19T04:45:18;6.53;;;5.60;;
17310;SDS011;8773;43.300;0.394;2022-08-19T04:47:48;6.10;;;5.60;;
17310;SDS011;8773;43.300;0.394;2022-08-19T04:50:39;7.93;;;6.07;;
17310;SDS011;8773;43.300;0.394;2022-08-19T04:53:08;6.00;;;5.45;;
17310;SDS011;8773;43.300;0.394;2022-08-19T04:55:42;6.38;;;5.70;;
17310;SDS011;8773;43.300;0.394;2022-08-19T04:58:10;6.30;;;5.80;;
17310;SDS011;8773;43.300;0.394;2022-08-19T05:00:38;6.33;;;5.80;;
17310;SDS011;8773;43.300;0.394;2022-08-19T05:03:07;6.47;;;5.83;;
17310;SDS011;8773;43.300;0.394;2022-08-19T05:05:38;6.38;;;5.72;;
17310;SDS011;8773;43.300;0.394;2022-08-19T05:08:10;7.55;;;5.60;;
17310;SDS011;8773;43.300;0.394;2022-08-19T05:10:41;6.50;;;5.93;;
17310;SDS011;8773;43.300;0.394;2022-08-19T05:13:10;7.43;;;5.90;;
17310;SDS011;8773;43.300;0.394;2022-08-19T05:15:38;8.10;;;6.47;;
17310;SDS011;8773;43.300;0.394;2022-08-19T05:18:07;7.90;;;6.30;;
17310;SDS011;8773;43.300;0.394;2022-08-19T05:20:52;9.17;;;6.20;;
17310;SDS011;8773;43.300;0.394;2022-08-19T05:23:38;9.27;;;6.10;;
17310;SDS011;8773;43.300;0.394;2022-08-19T05:26:08;6.30;;;5.70;;
17310;SDS011;8773;43.300;0.394;2022-08-19T05:28:37;6.90;;;5.97;;
17310;SDS011;8773;43.300;0.394;2022-08-19T05:31:05;6.28;;;5.78;;
17310;SDS011;8773;43.300;0.394;2022-08-19T05:33:33;6.55;;;5.95;;
17310;SDS011;8773;43.300;0.394;2022-08-19T05:36:02;5.83;;;5.43;;
17310;SDS011;8773;43.300;0.394;2022-08-19T05:38:30;6.00;;;5.50;;
17310;SDS011;8773;43.300;0.394;2022-08-19T05:40:58;6.72;;;6.00;;
17310;SDS011;8773;43.300;0.394;2022-08-19T05:43:28;6.80;;;6.20;;
17310;SDS011;8773;43.300;0.394;2022-08-19T05:45:56;6.13;;;5.50;;
17310;SDS011;8773;43.300;0.394;2022-08-19T05:48:24;6.22;;;5.63;;
17310;SDS011;8773;43.300;0.394;2022-08-19T05:50:52;5.67;;;5.27;;
17310;SDS011;8773;43.300;0.394;2022-08-19T05:53:20;8.30;;;5.50;;
17310;SDS011;8773;43.300;0.394;2022-08-19T05:55:48;7.93;;;5.63;;
17310;SDS011;8773;43.300;0.394;2022-08-19T05:58:16;6.30;;;5.80;;
17310;SDS011;8773;43.300;0.394;2022-08-19T06:00:49;7.03;;;6.32;;
17310;SDS011;8773;43.300;0.394;2022-08-19T06:03:17;7.07;;;5.97;;
17310;SDS011;8773;43.300;0.394;2022-08-19T06:05:45;6.65;;;5.80;;
17310;SDS011;8773;43.300;0.394;2022-08-19T06:08:17;8.35;;;5.43;;
17310;SDS011;8773;43.300;0.394;2022-08-19T06:11:12;6.65;;;6.00;;
17310;SDS011;8773;43.300;0.394;2022-08-19T06:13:42;7.28;;;6.30;;
17310;SDS011;8773;43.300;0.394;2022-08-19T06:16:12;10.07;;;6.78;;
17310;SDS011;8773;43.300;0.394;2022-08-19T06:18:45;6.65;;;5.78;;
17310;SDS011;8773;43.300;0.394;2022-08-19T06:21:13;6.88;;;5.93;;
17310;SDS011;8773;43.300;0.394;2022-08-19T06:23:41;7.20;;;5.43;;
17310;SDS011;8773;43.300;0.394;2022-08-19T06:26:11;6.80;;;5.57;;
17310;SDS011;8773;43.300;0.394;2022-08-19T06:28:39;7.57;;;5.90;;
17310;SDS011;8773;43.300;0.394;2022-08-19T06:31:10;8.02;;;5.75;;
17310;SDS011;8773;43.300;0.394;2022-08-19T06:33:41;6.20;;;5.50;;
17310;SDS011;8773;43.300;0.394;2022-08-19T06:36:16;5.82;;;5.22;;
17310;SDS011;8773;43.300;0.394;2022-08-19T06:38:45;7.68;;;5.65;;
17310;SDS011;8773;43.300;0.394;2022-08-19T06:41:13;5.75;;;5.20;;
17310;SDS011;8773;43.300;0.394;2022-08-19T06:43:41;9.10;;;5.43;;
17310;SDS011;8773;43.300;0.394;2022-08-19T06:46:12;7.25;;;5.47;;
17310;SDS011;8773;43.300;0.394;2022-08-19T06:48:44;6.20;;;5.60;;
17310;SDS011;8773;43.300;0.394;2022-08-19T06:51:12;6.10;;;5.50;;
17310;SDS011;8773;43.300;0.394;2022-08-19T06:53:45;8.50;;;5.70;;
17310;SDS011;8773;43.300;0.394;2022-08-19T06:56:14;7.10;;;5.72;;
17310;SDS011;8773;43.300;0.394;2022-08-19T06:58:42;9.38;;;6.22;;
17310;SDS011;8773;43.300;0.394;2022-08-19T07:01:11;7.43;;;4.68;;
17310;SDS011;8773;43.300;0.394;2022-08-19T07:03:39;9.60;;;5.40;;
17310;SDS011;8773;43.300;0.394;2022-08-19T07:06:09;4.57;;;4.18;;
17310;SDS011;8773;43.300;0.394;2022-08-19T07:08:59;3.97;;;3.63;;
17310;SDS011;8773;43.300;0.394;2022-08-19T07:11:27;5.28;;;3.80;;
17310;SDS011;8773;43.300;0.394;2022-08-19T07:14:05;7.30;;;4.50;;
17310;SDS011;8773;43.300;0.394;2022-08-19T07:16:45;3.95;;;3.60;;
17310;SDS011;8773;43.300;0.394;2022-08-19T07:19:17;4.00;;;3.30;;
17310;SDS011;8773;43.300;0.394;2022-08-19T07:21:50;5.18;;;3.80;;
17310;SDS011;8773;43.300;0.394;2022-08-19T07:24:19;9.77;;;4.32;;
17310;SDS011;8773;43.300;0.394;2022-08-19T07:26:50;6.53;;;3.47;;
17310;SDS011;8773;43.300;0.394;2022-08-19T07:29:19;3.47;;;2.70;;
17310;SDS011;8773;43.300;0.394;2022-08-19T07:31:54;4.28;;;3.58;;
17310;SDS011;8773;43.300;0.394;2022-08-19T07:34:27;9.18;;;4.25;;
17310;SDS011;8773;43.300;0.394;2022-08-19T07:37:05;5.18;;;3.40;;
17310;SDS011;8773;43.300;0.394;2022-08-19T07:39:34;6.53;;;3.42;;
17310;SDS011;8773;43.300;0.394;2022-08-19T07:42:05;4.32;;;3.92;;
17310;SDS011;8773;43.300;0.394;2022-08-19T07:44:39;4.97;;;3.65;;
17310;SDS011;8773;43.300;0.394;2022-08-19T07:47:16;7.70;;;4.10;;
17310;SDS011;8773;43.300;0.394;2022-08-19T07:50:05;6.90;;;4.07;;
17310;SDS011;8773;43.300;0.394;2022-08-19T07:52:38;4.38;;;3.75;;
17310;SDS011;8773;43.300;0.394;2022-08-19T07:55:07;6.70;;;4.28;;
17310;SDS011;8773;43.300;0.394;2022-08-19T07:57:56;5.38;;;4.70;;
17310;SDS011;8773;43.300;0.394;2022-08-19T08:00:25;5.35;;;4.03;;
17310;SDS011;8773;43.300;0.394;2022-08-19T08:02:53;5.63;;;4.50;;
17310;SDS011;8773;43.300;0.394;2022-08-19T08:05:21;6.90;;;4.57;;
17310;SDS011;8773;43.300;0.394;2022-08-19T08:08:10;5.57;;;4.18;;
17310;SDS011;8773;43.300;0.394;2022-08-19T08:10:57;7.82;;;4.80;;
17310;SDS011;8773;43.300;0.394;2022-08-19T08:13:26;5.60;;;4.57;;
17310;SDS011;8773;43.300;0.394;2022-08-19T08:15:55;5.20;;;4.72;;
17310;SDS011;8773;43.300;0.394;2022-08-19T08:18:24;6.68;;;4.72;;
17310;SDS011;8773;43.300;0.394;2022-08-19T08:20:53;5.50;;;4.88;;
17310;SDS011;8773;43.300;0.394;2022-08-19T08:23:23;7.93;;;4.55;;
17310;SDS011;8773;43.300;0.394;2022-08-19T08:25:53;5.22;;;4.25;;
17310;SDS011;8773;43.300;0.394;2022-08-19T08:28:23;5.15;;;4.70;;
17310;SDS011;8773;43.300;0.394;2022-08-19T08:30:55;7.00;;;4.70;;
17310;SDS011;8773;43.300;0.394;2022-08-19T08:33:25;5.28;;;4.78;;
17310;SDS011;8773;43.300;0.394;2022-08-19T08:36:00;5.80;;;4.38;;
17310;SDS011;8773;43.300;0.394;2022-08-19T08:38:32;4.97;;;4.30;;
17310;SDS011;8773;43.300;0.394;2022-08-19T08:41:09;4.70;;;4.28;;
17310;SDS011;8773;43.300;0.394;2022-08-19T08:43:48;7.57;;;4.63;;
17310;SDS011;8773;43.300;0.394;2022-08-19T08:46:20;6.00;;;4.47;;
17310;SDS011;8773;43.300;0.394;2022-08-19T08:48:58;6.45;;;4.28;;
17310;SDS011;8773;43.300;0.394;2022-08-19T08:51:33;6.43;;;4.75;;
17310;SDS011;8773;43.300;0.394;2022-08-19T08:54:07;5.10;;;4.32;;
17310;SDS011;8773;43.300;0.394;2022-08-19T08:56:37;4.85;;;4.47;;
17310;SDS011;8773;43.300;0.394;2022-08-19T08:59:07;5.30;;;4.03;;
17310;SDS011;8773;43.300;0.394;2022-08-19T09:01:43;5.85;;;4.50;;
17310;SDS011;8773;43.300;0.394;2022-08-19T09:04:12;5.95;;;4.47;;
17310;SDS011;8773;43.300;0.394;2022-08-19T09:06:43;5.45;;;4.35;;
17310;SDS011;8773;43.300;0.394;2022-08-19T09:09:23;5.28;;;4.55;;
17310;SDS011;8773;43.300;0.394;2022-08-19T09:12:00;5.13;;;3.53;;
17310;SDS011;8773;43.300;0.394;2022-08-19T09:14:39;3.85;;;3.42;;
17310;SDS011;8773;43.300;0.394;2022-08-19T09:17:16;4.43;;;3.40;;
17310;SDS011;8773;43.300;0.394;2022-08-19T09:19:50;5.70;;;3.67;;
17310;SDS011;8773;43.300;0.394;2022-08-19T09:22:20;4.38;;;3.90;;
17310;SDS011;8773;43.300;0.394;2022-08-19T09:24:53;4.95;;;4.03;;
17310;SDS011;8773;43.300;0.394;2022-08-19T09:27:22;4.72;;;3.58;;
17310;SDS011;8773;43.300;0.394;2022-08-19T09:30:09;3.15;;;2.88;;
17310;SDS011;8773;43.300;0.394;2022-08-19T09:32:41;5.22;;;3.53;;
17310;SDS011;8773;43.300;0.394;2022-08-19T09:35:09;3.35;;;3.05;;
17310;SDS011;8773;43.300;0.394;2022-08-19T09:37:39;3.80;;;3.35;;
17310;SDS011;8773;43.300;0.394;2022-08-19T09:40:12;5.07;;;3.35;;
17310;SDS011;8773;43.300;0.394;2022-08-19T09:42:41;3.53;;;3.22;;
17310;SDS011;8773;43.300;0.394;2022-08-19T09:45:18;3.90;;;3.25;;
17310;SDS011;8773;43.300;0.394;2022-08-19T09:47:48;4.40;;;3.42;;
17310;SDS011;8773;43.300;0.394;2022-08-19T09:50:19;3.72;;;3.28;;
17310;SDS011;8773;43.300;0.394;2022-08-19T09:52:48;5.88;;;3.53;;
17310;SDS011;8773;43.300;0.394;2022-08-19T09:55:24;4.18;;;3.08;;
17310;SDS011;8773;43.300;0.394;2022-08-19T09:57:58;3.70;;;3.35;;
17310;SDS011;8773;43.300;0.394;2022-08-19T10:00:27;3.25;;;2.92;;
17310;SDS011;8773;43.300;0.394;2022-08-19T10:02:56;3.75;;;3.45;;
17310;SDS011;8773;43.300;0.394;2022-08-19T10:05:27;3.25;;;2.95;;
17310;SDS011;8773;43.300;0.394;2022-08-19T10:08:14;3.47;;;2.63;;
17310;SDS011;8773;43.300;0.394;2022-08-19T10:10:44;3.50;;;2.85;;
17310;SDS011;8773;43.300;0.394;2022-08-19T10:13:14;4.18;;;2.67;;
17310;SDS011;8773;43.300;0.394;2022-08-19T10:15:43;4.38;;;3.08;;
17310;SDS011;8773;43.300;0.394;2022-08-19T10:18:15;2.70;;;2.33;;
17310;SDS011;8773;43.300;0.394;2022-08-19T10:20:45;3.35;;;2.80;;
17310;SDS011;8773;43.300;0.394;2022-08-19T10:23:18;3.17;;;2.63;;
17310;SDS011;8773;43.300;0.394;2022-08-19T10:25:48;3.08;;;2.55;;
17310;SDS011;8773;43.300;0.394;2022-08-19T10:28:19;2.50;;;2.30;;
17310;SDS011;8773;43.300;0.394;2022-08-19T10:30:49;2.03;;;1.90;;
17310;SDS011;8773;43.300;0.394;2022-08-19T10:33:18;3.58;;;2.70;;
17310;SDS011;8773;43.300;0.394;2022-08-19T10:36:10;2.75;;;2.55;;
17310;SDS011;8773;43.300;0.394;2022-08-19T10:38:46;3.20;;;2.58;;
17310;SDS011;8773;43.300;0.394;2022-08-19T10:41:23;2.63;;;2.42;;
17310;SDS011;8773;43.300;0.394;2022-08-19T10:43:53;3.83;;;3.10;;
17310;SDS011;8773;43.300;0.394;2022-08-19T10:46:30;3.38;;;2.72;;
17310;SDS011;8773;43.300;0.394;2022-08-19T10:48:59;3.10;;;2.90;;
17310;SDS011;8773;43.300;0.394;2022-08-19T10:51:28;3.42;;;2.75;;
17310;SDS011;8773;43.300;0.394;2022-08-19T10:54:14;2.80;;;2.60;;
17310;SDS011;8773;43.300;0.394;2022-08-19T10:56:57;2.80;;;2.60;;
17310;SDS011;8773;43.300;0.394;2022-08-19T10:59:25;2.53;;;2.33;;
17310;SDS011;8773;43.300;0.394;2022-08-19T11:02:02;3.13;;;2.83;;
17310;SDS011;8773;43.300;0.394;2022-08-19T11:04:32;3.22;;;2.90;;
17310;SDS011;8773;43.300;0.394;2022-08-19T11:07:01;2.70;;;2.50;;
17310;SDS011;8773;43.300;0.394;2022-08-19T11:09:29;2.55;;;2.22;;
17310;SDS011;8773;43.300;0.394;2022-08-19T11:12:01;2.55;;;2.22;;
17310;SDS011;8773;43.300;0.394;2022-08-19T11:14:38;2.50;;;2.40;;
17310;SDS011;8773;43.300;0.394;2022-08-19T11:17:08;2.97;;;2.72;;
17310;SDS011;8773;43.300;0.394;2022-08-19T11:19:40;2.45;;;2.35;;
17310;SDS011;8773;43.300;0.394;2022-08-19T11:22:09;5.53;;;3.50;;
17310;SDS011;8773;43.300;0.394;2022-08-19T11:24:41;2.80;;;2.53;;
17310;SDS011;8773;43.300;0.394;2022-08-19T11:27:10;3.10;;;2.85;;
17310;SDS011;8773;43.300;0.394;2022-08-19T11:29:41;3.38;;;2.97;;
17310;SDS011;8773;43.300;0.394;2022-08-19T11:32:09;2.88;;;2.67;;
17310;SDS011;8773;43.300;0.394;2022-08-19T11:34:39;3.72;;;3.30;;
17310;SDS011;8773;43.300;0.394;2022-08-19T11:37:07;2.90;;;2.60;;
17310;SDS011;8773;43.300;0.394;2022-08-19T11:39:35;2.75;;;2.50;;
17310;SDS011;8773;43.300;0.394;2022-08-19T11:42:05;4.63;;;2.58;;
17310;SDS011;8773;43.300;0.394;2022-08-19T11:44:55;2.65;;;2.20;;
17310;SDS011;8773;43.300;0.394;2022-08-19T11:47:23;2.60;;;2.40;;
17310;SDS011;8773;43.300;0.394;2022-08-19T11:49:52;2.55;;;2.35;;
17310;SDS011;8773;43.300;0.394;2022-08-19T11:52:20;2.97;;;2.63;;
17310;SDS011;8773;43.300;0.394;2022-08-19T11:54:48;2.60;;;2.40;;
17310;SDS011;8773;43.300;0.394;2022-08-19T11:57:16;3.17;;;2.63;;
17310;SDS011;8773;43.300;0.394;2022-08-19T11:59:49;2.90;;;2.70;;
17310;SDS011;8773;43.300;0.394;2022-08-19T12:02:19;2.72;;;2.60;;
17310;SDS011;8773;43.300;0.394;2022-08-19T12:04:48;2.72;;;2.47;;
17310;SDS011;8773;43.300;0.394;2022-08-19T12:07:18;3.47;;;2.60;;
17310;SDS011;8773;43.300;0.394;2022-08-19T12:09:46;2.90;;;2.70;;
17310;SDS011;8773;43.300;0.394;2022-08-19T12:12:14;3.60;;;2.65;;
17310;SDS011;8773;43.300;0.394;2022-08-19T12:14:42;2.60;;;2.50;;
17310;SDS011;8773;43.300;0.394;2022-08-19T12:17:12;3.00;;;2.38;;
17310;SDS011;8773;43.300;0.394;2022-08-19T12:19:42;3.00;;;2.80;;
17310;SDS011;8773;43.300;0.394;2022-08-19T12:22:10;3.03;;;2.72;;
17310;SDS011;8773;43.300;0.394;2022-08-19T12:24:39;3.40;;;3.10;;
17310;SDS011;8773;43.300;0.394;2022-08-19T12:27:07;3.13;;;2.90;;
17310;SDS011;8773;43.300;0.394;2022-08-19T12:29:38;4.32;;;2.75;;
17310;SDS011;8773;43.300;0.394;2022-08-19T12:32:07;3.00;;;2.80;;
17310;SDS011;8773;43.300;0.394;2022-08-19T12:34:37;3.22;;;2.92;;
17310;SDS011;8773;43.300;0.394;2022-08-19T12:37:07;2.80;;;2.60;;
17310;SDS011;8773;43.300;0.394;2022-08-19T12:39:36;2.80;;;2.60;;
17310;SDS011;8773;43.300;0.394;2022-08-19T12:42:12;3.08;;;2.85;;
17310;SDS011;8773;43.300;0.394;2022-08-19T12:44:44;4.68;;;2.95;;
17310;SDS011;8773;43.300;0.394;2022-08-19T12:47:15;2.50;;;2.30;;
17310;SDS011;8773;43.300;0.394;2022-08-19T12:49:45;2.45;;;2.35;;
17310;SDS011;8773;43.300;0.394;2022-08-19T12:52:22;3.05;;;2.80;;
17310;SDS011;8773;43.300;0.394;2022-08-19T12:54:51;2.80;;;2.42;;
17310;SDS011;8773;43.300;0.394;2022-08-19T12:57:21;2.97;;;2.67;;
17310;SDS011;8773;43.300;0.394;2022-08-19T12:59:59;2.47;;;2.30;;
17310;SDS011;8773;43.300;0.394;2022-08-19T13:02:31;2.90;;;2.58;;
17310;SDS011;8773;43.300;0.394;2022-08-19T13:05:05;2.70;;;2.50;;
17310;SDS011;8773;43.300;0.394;2022-08-19T13:07:39;2.35;;;2.17;;
17310;SDS011;8773;43.300;0.394;2022-08-19T13:10:11;3.30;;;2.85;;
17310;SDS011;8773;43.300;0.394;2022-08-19T13:12:41;4.00;;;2.78;;
17310;SDS011;8773;43.300;0.394;2022-08-19T13:15:10;2.75;;;2.55;;
17310;SDS011;8773;43.300;0.394;2022-08-19T13:17:40;2.70;;;2.50;;
17310;SDS011;8773;43.300;0.394;2022-08-19T13:20:10;2.90;;;2.70;;
17310;SDS011;8773;43.300;0.394;2022-08-19T13:22:39;2.60;;;2.40;;
17310;SDS011;8773;43.300;0.394;2022-08-19T13:25:08;2.67;;;2.58;;
17310;SDS011;8773;43.300;0.394;2022-08-19T13:27:37;3.42;;;2.45;;
17310;SDS011;8773;43.300;0.394;2022-08-19T13:30:07;2.60;;;2.40;;
17310;SDS011;8773;43.300;0.394;2022-08-19T13:32:57;3.13;;;2.85;;
17310;SDS011;8773;43.300;0.394;2022-08-19T13:35:44;2.30;;;2.20;;
17310;SDS011;8773;43.300;0.394;2022-08-19T13:38:17;2.50;;;2.40;;
17310;SDS011;8773;43.300;0.394;2022-08-19T13:40:48;2.63;;;2.40;;
17310;SDS011;8773;43.300;0.394;2022-08-19T13:43:18;2.60;;;2.47;;
17310;SDS011;8773;43.300;0.394;2022-08-19T13:45:49;2.50;;;2.22;;
17310;SDS011;8773;43.300;0.394;2022-08-19T13:48:19;2.58;;;2.42;;
17310;SDS011;8773;43.300;0.394;2022-08-19T13:50:47;3.00;;;2.28;;
17310;SDS011;8773;43.300;0.394;2022-08-19T13:53:17;2.50;;;2.40;;
17310;SDS011;8773;43.300;0.394;2022-08-19T13:55:47;2.50;;;2.22;;
17310;SDS011;8773;43.300;0.394;2022-08-19T13:58:17;2.47;;;2.38;;
17310;SDS011;8773;43.300;0.394;2022-08-19T14:00:45;2.70;;;2.50;;
17310;SDS011;8773;43.300;0.394;2022-08-19T14:03:14;2.60;;;2.40;;
17310;SDS011;8773;43.300;0.394;2022-08-19T14:05:43;2.90;;;2.63;;
17310;SDS011;8773;43.300;0.394;2022-08-19T14:08:12;3.30;;;3.20;;
17310;SDS011;8773;43.300;0.394;2022-08-19T14:10:44;3.10;;;2.63;;
17310;SDS011;8773;43.300;0.394;2022-08-19T14:13:14;2.78;;;2.60;;
17310;SDS011;8773;43.300;0.394;2022-08-19T14:15:44;2.65;;;2.45;;
17310;SDS011;8773;43.300;0.394;2022-08-19T14:18:12;2.40;;;2.30;;
17310;SDS011;8773;43.300;0.394;2022-08-19T14:20:41;3.47;;;2.58;;
17310;SDS011;8773;43.300;0.394;2022-08-19T14:23:10;2.42;;;2.22;;
17310;SDS011;8773;43.300;0.394;2022-08-19T14:25:38;2.40;;;2.20;;
17310;SDS011;8773;43.300;0.394;2022-08-19T14:28:08;2.40;;;2.30;;
17310;SDS011;8773;43.300;0.394;2022-08-19T14:30:36;2.35;;;2.25;;
17310;SDS011;8773;43.300;0.394;2022-08-19T14:33:05;2.75;;;2.55;;
17310;SDS011;8773;43.300;0.394;2022-08-19T14:35:34;3.00;;;2.67;;
17310;SDS011;8773;43.300;0.394;2022-08-19T14:38:02;2.38;;;2.28;;
17310;SDS011;8773;43.300;0.394;2022-08-19T14:40:33;3.05;;;2.70;;
17310;SDS011;8773;43.300;0.394;2022-08-19T14:43:03;2.67;;;2.50;;
17310;SDS011;8773;43.300;0.394;2022-08-19T14:45:34;2.50;;;2.30;;
17310;SDS011;8773;43.300;0.394;2022-08-19T14:48:07;2.42;;;2.33;;
17310;SDS011;8773;43.300;0.394;2022-08-19T14:50:44;2.83;;;2.65;;
17310;SDS011;8773;43.300;0.394;2022-08-19T14:53:13;2.60;;;2.40;;
17310;SDS011;8773;43.300;0.394;2022-08-19T14:55:43;2.72;;;2.53;;
17310;SDS011;8773;43.300;0.394;2022-08-19T14:58:12;2.35;;;2.22;;
17310;SDS011;8773;43.300;0.394;2022-08-19T15:00:59;2.50;;;2.40;;
17310;SDS011;8773;43.300;0.394;2022-08-19T15:03:28;2.60;;;2.40;;
17310;SDS011;8773;43.300;0.394;2022-08-19T15:05:58;2.38;;;2.28;;
17310;SDS011;8773;43.300;0.394;2022-08-19T15:08:27;2.45;;;2.25;;
17310;SDS011;8773;43.300;0.394;2022-08-19T15:10:57;2.53;;;2.38;;
17310;SDS011;8773;43.300;0.394;2022-08-19T15:13:27;2.70;;;2.55;;
17310;SDS011;8773;43.300;0.394;2022-08-19T15:15:56;2.47;;;2.28;;
17310;SDS011;8773;43.300;0.394;2022-08-19T15:18:26;2.40;;;2.30;;
17310;SDS011;8773;43.300;0.394;2022-08-19T15:20:54;2.70;;;2.50;;
17310;SDS011;8773;43.300;0.394;2022-08-19T15:23:23;2.80;;;2.60;;
17310;SDS011;8773;43.300;0.394;2022-08-19T15:25:51;2.45;;;2.30;;
17310;SDS011;8773;43.300;0.394;2022-08-19T15:28:22;2.88;;;2.55;;